Time;durP1;ratioP1;P1;durP2;ratioP2;P2;SDS_P1;SDS_P2;PMS_P1;PMS_P2;Temp;Humidity;BMP_temperature;BMP_pressure;BME280_temperature;BME280_humidity;BME280_pressure;Samples;Min_cycle;Max_cycle;Signal;HPM_P1;HPM_P2
2022/06/06 00:00:47;;;;;;;12.95;10.65;;;;;;;;;;5104857;28;20040;-63
2022/06/06 00:03:14;;;;;;;13.48;9.95;;;;;;;;;;5097807;28;20127;-64
2022/06/06 00:05:43;;;;;;;13.57;9.75;;;;;;;;;;5092895;28;20044;-64
2022/06/06 00:08:11;;;;;;;11.40;9.25;;;;;;;;;;5090025;28;20044;-63
2022/06/06 00:10:38;;;;;;;10.13;8.13;;;;;;;;;;5083027;28;20032;-63
2022/06/06 00:13:04;;;;;;;11.05;8.90;;;;;;;;;;5087659;28;20549;-63
2022/06/06 00:15:30;;;;;;;9.07;7.05;;;;;;;;;;5091275;28;20036;-63
2022/06/06 00:17:56;;;;;;;8.10;6.72;;;;;;;;;;5090746;28;20083;-63
2022/06/06 00:20:22;;;;;;;9.27;7.03;;;;;;;;;;5089144;28;20073;-63
2022/06/06 00:22:48;;;;;;;8.77;6.55;;;;;;;;;;5093012;28;20039;-63
2022/06/06 00:25:14;;;;;;;8.40;6.63;;;;;;;;;;5089205;28;20074;-63
2022/06/06 00:27:41;;;;;;;8.05;6.25;;;;;;;;;;5088074;28;20036;-63
2022/06/06 00:30:07;;;;;;;9.00;5.95;;;;;;;;;;5097847;28;20042;-63
2022/06/06 00:35:20;;;;;;;6.78;4.93;;;;;;;;;;5098949;28;20040;-63
2022/06/06 00:37:47;;;;;;;6.15;4.97;;;;;;;;;;5101170;28;20562;-63
2022/06/06 00:40:14;;;;;;;6.82;4.85;;;;;;;;;;5089237;28;20047;-64
2022/06/06 00:42:41;;;;;;;5.38;4.78;;;;;;;;;;5102238;28;20517;-63
2022/06/06 00:45:26;;;;;;;6.60;4.93;;;;;;;;;;5094299;28;20055;-64
2022/06/06 00:48:10;;;;;;;6.00;5.07;;;;;;;;;;5095061;28;20036;-63
2022/06/06 00:50:39;;;;;;;6.65;5.28;;;;;;;;;;5095476;28;20115;-64
2022/06/06 00:53:06;;;;;;;7.22;5.03;;;;;;;;;;5097662;28;20110;-64
2022/06/06 00:55:34;;;;;;;7.18;5.28;;;;;;;;;;5081203;28;20078;-63
2022/06/06 00:58:02;;;;;;;6.13;5.13;;;;;;;;;;5090706;28;20097;-63
2022/06/06 01:00:28;;;;;;;6.65;5.03;;;;;;;;;;5089177;28;20048;-63
2022/06/06 01:02:56;;;;;;;5.70;4.88;;;;;;;;;;5087632;28;20471;-63
2022/06/06 01:05:23;;;;;;;7.57;5.07;;;;;;;;;;5070497;28;20044;-63
2022/06/06 01:07:49;;;;;;;9.38;5.43;;;;;;;;;;5092518;28;20043;-63
2022/06/06 01:10:15;;;;;;;6.72;5.13;;;;;;;;;;5092836;28;20028;-63
2022/06/06 01:12:42;;;;;;;8.02;5.55;;;;;;;;;;5097989;28;20036;-63
2022/06/06 01:15:10;;;;;;;6.72;4.82;;;;;;;;;;5095240;28;20055;-63
2022/06/06 01:17:46;;;;;;;5.85;4.55;;;;;;;;;;5095227;28;20541;-63
2022/06/06 01:20:22;;;;;;;6.72;4.68;;;;;;;;;;5095634;28;20283;-63
2022/06/06 01:23:07;;;;;;;5.95;5.03;;;;;;;;;;5093127;28;20054;-64
2022/06/06 01:25:52;;;;;;;7.15;5.10;;;;;;;;;;5096852;28;20039;-63
2022/06/06 01:28:48;;;;;;;5.68;5.10;;;;;;;;;;5099038;28;20508;-63
2022/06/06 01:31:26;;;;;;;7.93;5.80;;;;;;;;;;5081777;28;20075;-64
2022/06/06 01:33:54;;;;;;;8.50;5.82;;;;;;;;;;5106927;28;20058;-63
2022/06/06 01:36:21;;;;;;;9.02;6.80;;;;;;;;;;5095879;28;20060;-63
2022/06/06 01:38:48;;;;;;;12.52;8.80;;;;;;;;;;5093774;28;20040;-64
2022/06/06 01:41:18;;;;;;;13.50;10.02;;;;;;;;;;5093046;28;20123;-63
2022/06/06 01:43:51;;;;;;;16.20;11.00;;;;;;;;;;5092286;28;20052;-63
2022/06/06 01:46:19;;;;;;;17.88;13.48;;;;;;;;;;5103730;28;20561;-63
2022/06/06 01:48:45;;;;;;;19.00;13.57;;;;;;;;;;5093798;28;20059;-64
2022/06/06 01:51:13;;;;;;;19.15;14.27;;;;;;;;;;5098965;28;20039;-64
2022/06/06 01:53:39;;;;;;;21.48;15.43;;;;;;;;;;5106742;28;20052;-64
2022/06/06 01:56:07;;;;;;;24.52;15.27;;;;;;;;;;5102605;28;20039;-64
2022/06/06 01:58:34;;;;;;;19.88;13.07;;;;;;;;;;5098366;28;20062;-64
2022/06/06 02:01:01;;;;;;;23.00;15.00;;;;;;;;;;5093046;28;20067;-64
2022/06/06 02:03:27;;;;;;;25.13;14.48;;;;;;;;;;5080153;28;20035;-63
2022/06/06 02:05:54;;;;;;;26.73;15.10;;;;;;;;;;5104277;22;20120;-67
2022/06/06 02:08:20;;;;;;;21.75;14.63;;;;;;;;;;5087911;28;20100;-67
2022/06/06 02:10:46;;;;;;;27.88;14.75;;;;;;;;;;5093659;28;20077;-67
2022/06/06 02:13:12;;;;;;;29.40;16.70;;;;;;;;;;5102614;28;20042;-67
2022/06/06 02:15:38;;;;;;;29.92;17.85;;;;;;;;;;5093879;28;20439;-67
2022/06/06 02:18:05;;;;;;;29.58;18.77;;;;;;;;;;5092796;28;20072;-67
2022/06/06 02:20:31;;;;;;;30.13;18.55;;;;;;;;;;5092338;28;20043;-67
2022/06/06 02:22:58;;;;;;;32.25;17.73;;;;;;;;;;5091827;28;20405;-67
2022/06/06 02:25:25;;;;;;;38.47;20.33;;;;;;;;;;5088602;28;20048;-67
2022/06/06 02:27:51;;;;;;;33.95;19.88;;;;;;;;;;5055515;28;20036;-67
2022/06/06 02:30:19;;;;;;;37.13;18.98;;;;;;;;;;5086722;28;20036;-67
2022/06/06 02:32:45;;;;;;;33.08;19.15;;;;;;;;;;5089110;28;20086;-67
2022/06/06 02:35:13;;;;;;;34.38;19.02;;;;;;;;;;5089030;28;20463;-67
2022/06/06 02:37:40;;;;;;;29.90;17.35;;;;;;;;;;5091669;28;20401;-67
2022/06/06 02:40:07;;;;;;;29.40;17.17;;;;;;;;;;5086974;28;20051;-67
2022/06/06 02:42:33;;;;;;;30.77;16.20;;;;;;;;;;5091096;28;20063;-67
2022/06/06 02:44:59;;;;;;;25.52;14.90;;;;;;;;;;5087850;28;20074;-68
2022/06/06 02:47:25;;;;;;;25.95;15.05;;;;;;;;;;5088284;28;20039;-67
2022/06/06 02:49:51;;;;;;;27.63;15.25;;;;;;;;;;5090762;28;20035;-67
2022/06/06 02:52:17;;;;;;;33.60;16.67;;;;;;;;;;5090817;28;20032;-67
2022/06/06 02:54:43;;;;;;;32.55;16.70;;;;;;;;;;5088248;28;20032;-67
2022/06/06 02:57:09;;;;;;;37.03;18.23;;;;;;;;;;5085260;28;20036;-68
2022/06/06 02:59:35;;;;;;;37.05;17.90;;;;;;;;;;5091654;28;20031;-67
2022/06/06 03:02:02;;;;;;;39.70;15.18;;;;;;;;;;5086688;28;20539;-67
2022/06/06 03:04:29;;;;;;;40.97;19.35;;;;;;;;;;5090975;28;20040;-68
2022/06/06 03:06:58;;;;;;;40.95;19.70;;;;;;;;;;5089987;28;20050;-68
2022/06/06 03:09:24;;;;;;;41.28;19.88;;;;;;;;;;5090993;28;20040;-68
2022/06/06 03:12:12;;;;;;;45.45;21.42;;;;;;;;;;5090433;28;20123;-68
2022/06/06 03:14:56;;;;;;;49.92;21.77;;;;;;;;;;5067013;28;20047;-67
2022/06/06 03:20:47;;;;;;;43.13;18.52;;;;;;;;;;5092131;28;20036;-67
2022/06/06 03:23:13;;;;;;;32.55;14.65;;;;;;;;;;5089897;28;20047;-67
2022/06/06 03:25:45;;;;;;;32.13;13.75;;;;;;;;;;5089876;28;20040;-67
2022/06/06 03:28:30;;;;;;;22.25;11.65;;;;;;;;;;5091538;28;20051;-67
2022/06/06 03:30:58;;;;;;;19.73;9.90;;;;;;;;;;5089929;28;20032;-67
2022/06/06 03:33:24;;;;;;;19.90;9.48;;;;;;;;;;5091096;28;20035;-67
2022/06/06 03:35:56;;;;;;;16.40;8.45;;;;;;;;;;5087816;28;20046;-67
2022/06/06 03:38:25;;;;;;;17.52;9.13;;;;;;;;;;5075044;28;20070;-67
2022/06/06 03:40:57;;;;;;;20.23;9.07;;;;;;;;;;5089710;28;20107;-67
2022/06/06 03:43:34;;;;;;;17.05;8.75;;;;;;;;;;5089726;28;20039;-67
2022/06/06 03:46:21;;;;;;;18.58;9.10;;;;;;;;;;5086063;28;20043;-67
2022/06/06 03:48:47;;;;;;;18.27;8.43;;;;;;;;;;5079530;28;20109;-68
2022/06/06 03:51:27;;;;;;;15.85;8.55;;;;;;;;;;5089441;28;20058;-68
2022/06/06 03:54:06;;;;;;;16.65;7.20;;;;;;;;;;5089676;28;20570;-68
2022/06/06 03:57:08;;;;;;;14.13;7.63;;;;;;;;;;5089689;28;20074;-67
2022/06/06 03:59:34;;;;;;;;;;;;;;;;;;4987899;28;20807;-68
2022/06/06 04:02:01;;;;;;;14.88;7.47;;;;;;;;;;5067100;28;19954;-68
2022/06/06 04:04:29;;;;;;;15.77;7.18;;;;;;;;;;5084004;28;20085;-68
2022/06/06 04:06:57;;;;;;;18.55;8.18;;;;;;;;;;5079201;28;20039;-67
2022/06/06 04:09:23;;;;;;;15.73;8.20;;;;;;;;;;5088582;28;20040;-67
2022/06/06 04:12:09;;;;;;;17.08;7.95;;;;;;;;;;5090405;28;20432;-67
2022/06/06 04:14:35;;;;;;;17.55;8.75;;;;;;;;;;5082211;28;20043;-67
2022/06/06 04:17:15;;;;;;;16.92;8.05;;;;;;;;;;5092688;28;20128;-67
2022/06/06 04:19:44;;;;;;;15.90;8.75;;;;;;;;;;5090149;28;20035;-67
2022/06/06 04:22:13;;;;;;;20.63;10.00;;;;;;;;;;5071207;28;20056;-67
2022/06/06 04:24:58;;;;;;;17.38;9.45;;;;;;;;;;5086490;28;20460;-67
2022/06/06 04:27:33;;;;;;;19.38;9.05;;;;;;;;;;5088988;28;20101;-67
2022/06/06 04:30:05;;;;;;;19.17;9.32;;;;;;;;;;5089925;28;20032;-67
2022/06/06 04:32:34;;;;;;;23.73;10.25;;;;;;;;;;5088291;28;20080;-67
2022/06/06 04:35:26;;;;;;;22.25;11.27;;;;;;;;;;5084600;28;20036;-67
2022/06/06 04:38:05;;;;;;;24.67;11.73;;;;;;;;;;5084114;28;20044;-67
2022/06/06 04:40:36;;;;;;;25.70;11.65;;;;;;;;;;5090955;28;20043;-67
2022/06/06 04:43:09;;;;;;;26.65;12.85;;;;;;;;;;5086795;28;20128;-67
2022/06/06 04:45:55;;;;;;;25.75;12.43;;;;;;;;;;5090767;28;20493;-67
2022/06/06 04:48:22;;;;;;;27.83;13.15;;;;;;;;;;5063095;28;20052;-67
2022/06/06 04:50:48;;;;;;;26.80;12.85;;;;;;;;;;5088869;28;20036;-67
2022/06/06 04:53:18;;;;;;;27.65;12.60;;;;;;;;;;5088546;28;20044;-67
2022/06/06 04:55:45;;;;;;;23.90;12.73;;;;;;;;;;5088799;28;20043;-66
2022/06/06 04:58:11;;;;;;;23.48;11.82;;;;;;;;;;5090239;28;20097;-67
2022/06/06 05:00:39;;;;;;;22.52;11.77;;;;;;;;;;5086933;28;20121;-66
2022/06/06 05:03:05;;;;;;;22.10;11.57;;;;;;;;;;5087420;28;20602;-67
2022/06/06 05:05:48;;;;;;;23.48;11.48;;;;;;;;;;5087893;28;20036;-67
2022/06/06 05:08:33;;;;;;;19.38;10.82;;;;;;;;;;5085336;28;20047;-67
2022/06/06 05:11:02;;;;;;;24.23;10.82;;;;;;;;;;5090917;28;20040;-67
2022/06/06 05:13:47;;;;;;;20.60;10.63;;;;;;;;;;5085148;28;20123;-67
2022/06/06 05:16:23;;;;;;;19.10;9.93;;;;;;;;;;5083175;28;20048;-67
2022/06/06 05:18:49;;;;;;;19.63;9.68;;;;;;;;;;5085454;28;20036;-67
2022/06/06 05:21:31;;;;;;;17.63;9.18;;;;;;;;;;5087646;28;20096;-67
2022/06/06 05:24:00;;;;;;;15.10;8.75;;;;;;;;;;5079097;28;20056;-67
2022/06/06 05:26:35;;;;;;;19.60;9.70;;;;;;;;;;5090486;28;20047;-67
2022/06/06 05:29:01;;;;;;;21.20;9.32;;;;;;;;;;5094163;28;20040;-67
2022/06/06 05:31:33;;;;;;;17.00;8.90;;;;;;;;;;5085139;28;20097;-67
2022/06/06 05:34:03;;;;;;;16.60;9.27;;;;;;;;;;5090141;28;20446;-67
2022/06/06 05:36:48;;;;;;;16.15;9.32;;;;;;;;;;5090233;28;20040;-67
2022/06/06 05:39:26;;;;;;;17.77;9.15;;;;;;;;;;5088558;28;20373;-67
2022/06/06 05:42:11;;;;;;;16.50;8.93;;;;;;;;;;5088068;28;20071;-67
2022/06/06 05:44:56;;;;;;;16.98;9.38;;;;;;;;;;5089596;28;20040;-67
2022/06/06 05:47:25;;;;;;;17.95;9.90;;;;;;;;;;5090395;28;20044;-67
2022/06/06 05:49:51;;;;;;;16.48;9.30;;;;;;;;;;5088104;28;20028;-67
2022/06/06 05:52:27;;;;;;;21.25;9.23;;;;;;;;;;5089668;28;20028;-67
2022/06/06 05:55:11;;;;;;;23.05;10.82;;;;;;;;;;5087810;28;20044;-67
2022/06/06 05:57:37;;;;;;;23.05;10.60;;;;;;;;;;5091613;28;20067;-67
2022/06/06 06:00:10;;;;;;;20.83;10.63;;;;;;;;;;5089844;28;20132;-67
2022/06/06 06:02:55;;;;;;;22.15;11.60;;;;;;;;;;5091673;28;20051;-67
2022/06/06 06:05:26;;;;;;;19.98;10.68;;;;;;;;;;5091262;28;20089;-67
2022/06/06 06:07:58;;;;;;;20.98;10.75;;;;;;;;;;5090267;28;20035;-67
2022/06/06 06:10:50;;;;;;;22.20;11.10;;;;;;;;;;5091306;28;20044;-67
2022/06/06 06:13:28;;;;;;;23.52;11.88;;;;;;;;;;5085722;28;20036;-67
2022/06/06 06:15:57;;;;;;;28.10;12.35;;;;;;;;;;5087537;28;20040;-67
2022/06/06 06:18:29;;;;;;;23.67;12.02;;;;;;;;;;5095713;28;20043;-67
2022/06/06 06:21:18;;;;;;;19.48;10.35;;;;;;;;;;5071216;28;20036;-67
2022/06/06 06:23:49;;;;;;;17.65;9.93;;;;;;;;;;5090375;28;20039;-67
2022/06/06 06:26:15;;;;;;;17.45;9.27;;;;;;;;;;5090502;28;20044;-67
2022/06/06 06:28:41;;;;;;;19.48;9.77;;;;;;;;;;5093616;28;20055;-67
2022/06/06 06:31:19;;;;;;;19.90;9.73;;;;;;;;;;5084866;28;20378;-67
2022/06/06 06:33:51;;;;;;;19.00;8.65;;;;;;;;;;5087638;28;20131;-67
2022/06/06 06:36:36;;;;;;;20.23;10.18;;;;;;;;;;5090347;28;20040;-67
2022/06/06 06:39:11;;;;;;;18.92;9.77;;;;;;;;;;5089476;28;20042;-67
2022/06/06 06:41:40;;;;;;;19.50;9.52;;;;;;;;;;5088647;28;20047;-66
2022/06/06 06:44:11;;;;;;;20.33;9.75;;;;;;;;;;5089993;28;20040;-67
2022/06/06 06:46:46;;;;;;;18.90;9.20;;;;;;;;;;5088364;28;20036;-67
2022/06/06 06:49:12;;;;;;;17.77;10.25;;;;;;;;;;5084940;28;20441;-67
2022/06/06 06:51:41;;;;;;;20.40;10.15;;;;;;;;;;5090691;28;20032;-67
2022/06/06 06:54:26;;;;;;;21.17;10.63;;;;;;;;;;5095283;28;20123;-66
2022/06/06 06:56:55;;;;;;;16.52;9.05;;;;;;;;;;5086212;28;20043;-67
2022/06/06 06:59:40;;;;;;;21.10;9.40;;;;;;;;;;5086910;28;20035;-67
2022/06/06 07:10:39;;;;;;;;;;;;;;;;;;5086712;28;20378;-67
2022/06/06 07:13:17;;;;;;;19.20;9.80;;;;;;;;;;5087295;28;19923;-66
2022/06/06 07:15:51;;;;;;;21.55;9.98;;;;;;;;;;5085876;28;20115;-67
2022/06/06 07:18:19;;;;;;;25.50;11.00;;;;;;;;;;5086083;28;20066;-67
2022/06/06 07:20:46;;;;;;;22.98;11.88;;;;;;;;;;5083963;28;20044;-66
2022/06/06 07:23:13;;;;;;;23.98;11.77;;;;;;;;;;5087798;28;20566;-66
2022/06/06 07:25:40;;;;;;;22.80;12.25;;;;;;;;;;5083327;28;20094;-66
2022/06/06 07:28:08;;;;;;;25.52;12.27;;;;;;;;;;5091120;28;20489;-66
2022/06/06 07:30:38;;;;;;;23.95;13.25;;;;;;;;;;5087039;28;20044;-67
2022/06/06 07:33:18;;;;;;;23.67;12.52;;;;;;;;;;5086448;28;20079;-67
2022/06/06 07:35:57;;;;;;;27.95;12.90;;;;;;;;;;5085105;28;20039;-66
2022/06/06 07:38:42;;;;;;;26.98;13.38;;;;;;;;;;5089135;28;20036;-67
2022/06/06 07:41:11;;;;;;;26.98;13.18;;;;;;;;;;5090386;28;20096;-66
2022/06/06 07:43:43;;;;;;;24.88;13.05;;;;;;;;;;5087540;28;20036;-67
2022/06/06 07:46:18;;;;;;;26.83;12.27;;;;;;;;;;5094457;28;20040;-66
2022/06/06 07:48:52;;;;;;;22.55;12.98;;;;;;;;;;5087934;28;20535;-67
2022/06/06 07:51:18;;;;;;;20.73;11.27;;;;;;;;;;5095123;28;20040;-67
2022/06/06 07:53:53;;;;;;;24.73;13.20;;;;;;;;;;5089488;28;20543;-67
2022/06/06 07:56:19;;;;;;;21.88;13.02;;;;;;;;;;5089388;28;20042;-67
2022/06/06 07:58:51;;;;;;;19.65;11.57;;;;;;;;;;5096594;28;20404;-67
2022/06/06 08:01:29;;;;;;;21.83;12.85;;;;;;;;;;5094731;28;20123;-67
2022/06/06 08:04:06;;;;;;;19.45;11.35;;;;;;;;;;5087438;28;20774;-67
2022/06/06 08:06:36;;;;;;;14.88;11.10;;;;;;;;;;5122418;22;20044;-62
2022/06/06 08:09:02;;;;;;;15.52;9.52;;;;;;;;;;5100027;28;20039;-63
2022/06/06 08:11:46;;;;;;;14.63;8.52;;;;;;;;;;5105565;28;20032;-63
2022/06/06 08:14:32;;;;;;;15.82;8.48;;;;;;;;;;5103208;28;20504;-63
2022/06/06 08:17:11;;;;;;;12.70;7.32;;;;;;;;;;5078045;28;20097;-63
2022/06/06 08:19:56;;;;;;;11.35;7.07;;;;;;;;;;5091596;28;20067;-62
2022/06/06 08:22:24;;;;;;;12.10;6.40;;;;;;;;;;5091630;28;20122;-63
2022/06/06 08:24:53;;;;;;;9.30;6.28;;;;;;;;;;5076952;28;20482;-62
2022/06/06 08:27:19;;;;;;;11.23;6.43;;;;;;;;;;5079809;28;20620;-63
2022/06/06 08:29:46;;;;;;;10.32;6.10;;;;;;;;;;5078475;28;20119;-63
2022/06/06 08:32:12;;;;;;;9.40;5.10;;;;;;;;;;5053279;28;20429;-63
2022/06/06 08:34:38;;;;;;;9.10;4.22;;;;;;;;;;5073450;28;20045;-63
2022/06/06 08:37:24;;;;;;;5.38;3.63;;;;;;;;;;5075435;28;20151;-63
2022/06/06 08:39:56;;;;;;;7.68;3.20;;;;;;;;;;5083024;28;20044;-63
2022/06/06 08:42:22;;;;;;;6.32;3.78;;;;;;;;;;5091096;28;20040;-63
2022/06/06 08:45:06;;;;;;;7.55;3.60;;;;;;;;;;5075638;28;20443;-63
2022/06/06 08:47:34;;;;;;;8.70;3.50;;;;;;;;;;5091107;28;20044;-63
2022/06/06 08:53:22;;;;;;;10.82;3.05;;;;;;;;;;5086242;28;20048;-63
2022/06/06 08:56:02;;;;;;;6.85;2.72;;;;;;;;;;5085104;28;20043;-63
2022/06/06 08:58:31;;;;;;;6.13;2.88;;;;;;;;;;5091130;28;20036;-63
2022/06/06 09:01:08;;;;;;;5.57;2.63;;;;;;;;;;5078266;28;20045;-63
2022/06/06 09:03:46;;;;;;;4.72;2.80;;;;;;;;;;5095346;28;20043;-63
2022/06/06 09:06:31;;;;;;;6.10;2.60;;;;;;;;;;5094269;28;20081;-63
2022/06/06 09:09:16;;;;;;;4.30;2.60;;;;;;;;;;5082654;28;20516;-63
2022/06/06 09:12:01;;;;;;;6.72;2.40;;;;;;;;;;5075326;28;20067;-63
2022/06/06 09:14:37;;;;;;;5.78;2.40;;;;;;;;;;5080719;28;20036;-63
2022/06/06 09:17:09;;;;;;;4.85;1.95;;;;;;;;;;5091021;28;20449;-63
2022/06/06 09:19:54;;;;;;;4.68;2.50;;;;;;;;;;5094507;28;20068;-63
2022/06/06 09:22:32;;;;;;;5.18;2.30;;;;;;;;;;5086409;28;20033;-62
2022/06/06 09:25:10;;;;;;;9.57;2.33;;;;;;;;;;5094981;28;20039;-63
2022/06/06 09:27:39;;;;;;;4.50;2.08;;;;;;;;;;5090251;28;20044;-62
2022/06/06 09:30:23;;;;;;;7.15;2.08;;;;;;;;;;5082574;28;20032;-63
2022/06/06 09:32:52;;;;;;;6.57;2.50;;;;;;;;;;5074925;28;20040;-62
2022/06/06 09:35:30;;;;;;;3.17;2.25;;;;;;;;;;5076704;28;20040;-63
2022/06/06 09:38:13;;;;;;;4.57;2.30;;;;;;;;;;5079707;28;20493;-62
2022/06/06 09:40:56;;;;;;;6.93;2.10;;;;;;;;;;5074595;28;20093;-62
2022/06/06 09:43:25;;;;;;;4.60;2.47;;;;;;;;;;5078627;28;20032;-62
2022/06/06 09:46:05;;;;;;;2.45;2.20;;;;;;;;;;5080599;28;20485;-62
2022/06/06 09:48:50;;;;;;;3.40;1.65;;;;;;;;;;5074129;28;20053;-62
2022/06/06 09:51:34;;;;;;;3.13;1.88;;;;;;;;;;5077843;28;20383;-62
2022/06/06 10:00:17;;;;;;;2.72;1.90;;;;;;;;;;5077099;28;20048;-62
2022/06/06 10:02:55;;;;;;;5.32;2.75;;;;;;;;;;5074247;28;20033;-62
2022/06/06 10:05:36;;;;;;;5.55;2.72;;;;;;;;;;5090156;28;20040;-63
2022/06/06 10:08:02;;;;;;;5.47;2.95;;;;;;;;;;5073918;28;20048;-62
2022/06/06 10:10:28;;;;;;;4.28;2.47;;;;;;;;;;5073683;28;20433;-62
2022/06/06 10:13:03;;;;;;;7.00;2.40;;;;;;;;;;5083974;28;20065;-62
2022/06/06 10:15:35;;;;;;;7.93;2.50;;;;;;;;;;5074676;28;20376;-62
2022/06/06 10:18:07;;;;;;;5.03;2.10;;;;;;;;;;5077833;28;20043;-62
2022/06/06 10:20:56;;;;;;;4.30;1.73;;;;;;;;;;5079146;28;20036;-62
2022/06/06 10:23:41;;;;;;;2.60;1.42;;;;;;;;;;5081962;28;20521;-62
2022/06/06 10:26:07;;;;;;;4.53;2.20;;;;;;;;;;5078126;28;20501;-62
2022/06/06 10:28:40;;;;;;;6.13;2.40;;;;;;;;;;5066132;28;20040;-62
2022/06/06 10:31:09;;;;;;;5.35;1.67;;;;;;;;;;5077477;28;20509;-62
2022/06/06 10:33:38;;;;;;;3.28;1.55;;;;;;;;;;5080972;28;20056;-62
2022/06/06 10:36:08;;;;;;;4.25;1.95;;;;;;;;;;5077793;28;20485;-62
2022/06/06 10:38:37;;;;;;;3.03;1.60;;;;;;;;;;5073253;28;20649;-62
2022/06/06 10:41:22;;;;;;;7.05;2.38;;;;;;;;;;5078415;28;20044;-62
2022/06/06 10:43:58;;;;;;;2.85;1.73;;;;;;;;;;5081497;28;20046;-62
2022/06/06 10:46:30;;;;;;;3.15;1.65;;;;;;;;;;5073794;28;20071;-62
2022/06/06 10:49:16;;;;;;;3.63;1.52;;;;;;;;;;5077772;28;20444;-63
2022/06/06 10:51:48;;;;;;;3.58;1.70;;;;;;;;;;5073039;28;20091;-62
2022/06/06 10:54:33;;;;;;;4.40;1.60;;;;;;;;;;5089672;28;20535;-62
2022/06/06 10:57:18;;;;;;;3.55;1.50;;;;;;;;;;5087553;28;20551;-62
2022/06/06 11:00:03;;;;;;;3.15;1.88;;;;;;;;;;5081007;28;20032;-62
2022/06/06 11:02:47;;;;;;;3.78;2.30;;;;;;;;;;5078921;28;20036;-62
2022/06/06 11:05:19;;;;;;;1.90;1.48;;;;;;;;;;5089753;28;20040;-62
2022/06/06 11:07:48;;;;;;;2.78;1.02;;;;;;;;;;5092651;28;20492;-62
2022/06/06 11:10:41;;;;;;;1.38;1.20;;;;;;;;;;5091413;28;20097;-62
2022/06/06 11:13:26;;;;;;;1.23;0.95;;;;;;;;;;5081337;28;20055;-62
2022/06/06 11:16:11;;;;;;;0.93;0.90;;;;;;;;;;5060912;28;20478;-62
2022/06/06 11:18:46;;;;;;;2.83;1.38;;;;;;;;;;5084312;28;20036;-62
2022/06/06 11:21:15;;;;;;;1.92;1.10;;;;;;;;;;5084230;28;20500;-63
2022/06/06 11:23:57;;;;;;;2.53;1.27;;;;;;;;;;5091590;28;20115;-62
2022/06/06 11:26:23;;;;;;;1.40;1.30;;;;;;;;;;5084088;28;20090;-62
2022/06/06 11:29:11;;;;;;;2.05;1.70;;;;;;;;;;5092758;28;20452;-62
2022/06/06 11:31:56;;;;;;;2.38;1.90;;;;;;;;;;5083588;28;20047;-62
2022/06/06 11:34:37;;;;;;;2.25;2.03;;;;;;;;;;5081923;28;20035;-63
2022/06/06 11:37:04;;;;;;;5.35;2.25;;;;;;;;;;5072369;28;20496;-62
2022/06/06 11:39:36;;;;;;;4.80;2.10;;;;;;;;;;5077547;28;20049;-62
2022/06/06 11:42:13;;;;;;;2.97;2.00;;;;;;;;;;5080628;28;20039;-64
2022/06/06 11:44:45;;;;;;;4.13;2.47;;;;;;;;;;5068716;28;20044;-63
2022/06/06 11:47:26;;;;;;;3.60;2.33;;;;;;;;;;5065211;28;20119;-63
2022/06/06 11:50:07;;;;;;;3.63;2.35;;;;;;;;;;5085746;28;20040;-63
2022/06/06 11:52:51;;;;;;;3.28;2.30;;;;;;;;;;5091854;28;20035;-63
2022/06/06 11:55:20;;;;;;;3.20;2.63;;;;;;;;;;5082723;28;20129;-63
2022/06/06 11:58:05;;;;;;;2.85;2.10;;;;;;;;;;5071575;28;20044;-63
2022/06/06 12:00:34;;;;;;;6.55;2.00;;;;;;;;;;5072617;28;20047;-63
2022/06/06 12:03:12;;;;;;;5.18;2.00;;;;;;;;;;5080394;28;20097;-63
2022/06/06 12:05:50;;;;;;;3.45;1.92;;;;;;;;;;5071452;28;20055;-64
2022/06/06 12:08:22;;;;;;;4.15;2.13;;;;;;;;;;5072542;28;20513;-64
2022/06/06 12:11:01;;;;;;;3.28;1.83;;;;;;;;;;5064917;28;20067;-63
2022/06/06 12:13:27;;;;;;;6.05;2.10;;;;;;;;;;5080542;28;20043;-63
2022/06/06 12:16:15;;;;;;;4.85;2.00;;;;;;;;;;5078241;28;20028;-63
2022/06/06 12:18:41;;;;;;;3.75;1.85;;;;;;;;;;5071415;28;20051;-63
2022/06/06 12:21:07;;;;;;;1.52;1.40;;;;;;;;;;5087639;28;20040;-63
2022/06/06 12:23:46;;;;;;;2.08;1.73;;;;;;;;;;5080991;28;20051;-63
2022/06/06 12:26:27;;;;;;;1.73;1.50;;;;;;;;;;5080802;28;20377;-63
2022/06/06 12:28:53;;;;;;;2.95;1.70;;;;;;;;;;5090144;28;20446;-63
2022/06/06 12:31:25;;;;;;;2.55;1.67;;;;;;;;;;5085945;28;20044;-63
2022/06/06 12:34:06;;;;;;;2.50;1.85;;;;;;;;;;5083189;28;20111;-63
2022/06/06 12:36:35;;;;;;;2.78;1.92;;;;;;;;;;5071841;28;20033;-63
2022/06/06 12:39:07;;;;;;;2.22;1.80;;;;;;;;;;5053279;28;20049;-63
2022/06/06 12:41:33;;;;;;;2.65;1.70;;;;;;;;;;5081330;28;20035;-63
2022/06/06 12:44:02;;;;;;;4.28;2.10;;;;;;;;;;5081480;28;20041;-63
2022/06/06 12:46:34;;;;;;;2.28;1.58;;;;;;;;;;5079396;28;20040;-63
2022/06/06 12:49:06;;;;;;;2.05;1.25;;;;;;;;;;5074888;28;20040;-63
2022/06/06 12:51:52;;;;;;;1.83;1.40;;;;;;;;;;5091528;28;20111;-63
2022/06/06 12:57:26;;;;;;;1.33;1.02;;;;;;;;;;5087376;28;20075;-63
2022/06/06 12:59:58;;;;;;;2.72;1.23;;;;;;;;;;5079437;28;20485;-63
2022/06/06 13:02:27;;;;;;;3.10;1.48;;;;;;;;;;5070866;28;20045;-63
2022/06/06 13:04:53;;;;;;;5.05;1.77;;;;;;;;;;5071460;28;20040;-63
2022/06/06 13:07:22;;;;;;;2.75;1.88;;;;;;;;;;5071280;28;20118;-63
2022/06/06 13:09:51;;;;;;;4.03;2.15;;;;;;;;;;5079339;28;20112;-63
2022/06/06 13:12:29;;;;;;;7.28;3.17;;;;;;;;;;5086759;28;20036;-64
2022/06/06 13:15:01;;;;;;;3.45;1.95;;;;;;;;;;5078774;28;20050;-64
2022/06/06 13:17:48;;;;;;;2.85;1.80;;;;;;;;;;5081272;28;20140;-63
2022/06/06 13:20:18;;;;;;;3.78;1.60;;;;;;;;;;5073375;28;20135;-63
2022/06/06 13:23:10;;;;;;;2.03;1.65;;;;;;;;;;5070806;28;20202;-64
2022/06/06 13:25:54;;;;;;;1.75;1.00;;;;;;;;;;5082541;28;20438;-63
2022/06/06 13:28:41;;;;;;;1.10;0.93;;;;;;;;;;5082429;28;20047;-63
2022/06/06 13:31:39;;;;;;;1.83;1.05;;;;;;;;;;5074150;28;20036;-63
2022/06/06 13:34:14;;;;;;;1.58;0.90;;;;;;;;;;5026689;28;20052;-64
2022/06/06 13:37:04;;;;;;;1.35;1.10;;;;;;;;;;5052710;28;20041;-63
2022/06/06 13:39:33;;;;;;;1.20;1.10;;;;;;;;;;5082635;28;20063;-63
2022/06/06 13:42:03;;;;;;;2.38;1.45;;;;;;;;;;5090659;28;20044;-64
2022/06/06 13:44:29;;;;;;;1.80;1.33;;;;;;;;;;5082407;28;20036;-63
2022/06/06 13:46:55;;;;;;;2.85;1.30;;;;;;;;;;5080776;28;20163;-64
2022/06/06 13:49:29;;;;;;;4.13;1.83;;;;;;;;;;5064487;28;20079;-63
2022/06/06 13:52:13;;;;;;;3.28;1.75;;;;;;;;;;5086880;28;20445;-63
2022/06/06 13:54:39;;;;;;;2.92;1.92;;;;;;;;;;5084795;28;20433;-64
2022/06/06 13:57:08;;;;;;;3.22;1.95;;;;;;;;;;5085998;28;20036;-64
2022/06/06 13:59:44;;;;;;;4.82;2.15;;;;;;;;;;5077697;28;20043;-63
2022/06/06 14:02:28;;;;;;;2.83;2.25;;;;;;;;;;5085627;28;20616;-63
2022/06/06 14:05:02;;;;;;;3.15;2.47;;;;;;;;;;5087165;22;20079;-66
2022/06/06 14:07:31;;;;;;;3.60;2.50;;;;;;;;;;5044775;28;20052;-65
2022/06/06 14:10:04;;;;;;;4.78;3.10;;;;;;;;;;5046610;28;20044;-65
2022/06/06 14:12:49;;;;;;;3.50;3.20;;;;;;;;;;5047374;28;20592;-63
2022/06/06 14:15:16;;;;;;;4.55;3.97;;;;;;;;;;5038034;28;20033;-64
2022/06/06 14:17:48;;;;;;;5.53;3.80;;;;;;;;;;5051463;28;20093;-64
2022/06/06 14:20:25;;;;;;;5.95;3.75;;;;;;;;;;5048154;28;20047;-64
2022/06/06 14:22:51;;;;;;;8.32;3.67;;;;;;;;;;5049877;28;20045;-63
2022/06/06 14:25:17;;;;;;;4.03;3.28;;;;;;;;;;5047060;28;20623;-65
2022/06/06 14:27:43;;;;;;;4.45;3.40;;;;;;;;;;5046425;28;20041;-66
2022/06/06 14:30:28;;;;;;;4.75;3.35;;;;;;;;;;5049525;28;20412;-66
2022/06/06 14:32:57;;;;;;;4.63;4.03;;;;;;;;;;5051009;28;20593;-66
2022/06/06 14:35:28;;;;;;;6.07;3.83;;;;;;;;;;5046837;28;20037;-65
2022/06/06 14:38:09;;;;;;;5.57;4.50;;;;;;;;;;5047166;28;20052;-65
2022/06/06 14:40:35;;;;;;;;;;;;;;;;;;5050312;28;20045;-65
2022/06/06 14:43:01;;;;;;;4.32;3.90;;;;;;;;;;5048018;28;22038;-66
2022/06/06 14:45:29;;;;;;;4.95;4.30;;;;;;;;;;5044682;28;20444;-66
2022/06/06 14:47:56;;;;;;;5.97;4.25;;;;;;;;;;5051528;28;20037;-66
2022/06/06 14:53:12;;;;;;;7.88;4.20;;;;;;;;;;5050767;28;20037;-66
2022/06/06 14:55:46;;;;;;;5.68;4.43;;;;;;;;;;5049951;28;20529;-66
2022/06/06 14:58:14;;;;;;;4.72;4.22;;;;;;;;;;5050254;28;20382;-66
2022/06/06 15:00:49;;;;;;;5.30;4.45;;;;;;;;;;5045686;28;20528;-66
2022/06/06 15:03:15;;;;;;;6.45;4.43;;;;;;;;;;5048515;28;20049;-65
2022/06/06 15:05:41;;;;;;;7.35;4.32;;;;;;;;;;5047973;28;20037;-65
2022/06/06 15:08:24;;;;;;;6.10;4.32;;;;;;;;;;5048834;28;20516;-66
2022/06/06 15:10:55;;;;;;;7.78;4.18;;;;;;;;;;5047190;28;20060;-65
2022/06/06 15:13:22;;;;;;;;;;;;;;;;;;5048567;28;20037;-65
2022/06/06 15:15:48;;;;;;;4.60;4.10;;;;;;;;;;5049588;28;19920;-65
2022/06/06 15:18:28;;;;;;;6.28;4.90;;;;;;;;;;5051045;28;20040;-65
2022/06/06 15:20:55;;;;;;;4.97;4.47;;;;;;;;;;5032832;28;20123;-66
2022/06/06 15:23:28;;;;;;;7.45;5.25;;;;;;;;;;5051221;28;20637;-66
2022/06/06 15:26:00;;;;;;;7.57;5.60;;;;;;;;;;5048739;28;20045;-66
2022/06/06 15:28:41;;;;;;;6.22;5.28;;;;;;;;;;5049952;28;20406;-65
2022/06/06 15:31:10;;;;;;;6.78;5.03;;;;;;;;;;5047309;28;20039;-66
2022/06/06 15:33:45;;;;;;;7.15;4.82;;;;;;;;;;5049032;28;20040;-66
2022/06/06 15:36:17;;;;;;;5.75;4.10;;;;;;;;;;5047599;28;20491;-66
2022/06/06 15:38:44;;;;;;;5.20;4.32;;;;;;;;;;5045355;28;20555;-64
2022/06/06 15:41:23;;;;;;;7.10;4.60;;;;;;;;;;5048745;28;20048;-65